sensor_id;sensor_type;location;lat;lon;timestamp;P1;durP1;ratioP1;P2;durP2;ratioP2
68247;SDS011;55064;49.636;12.164;2023-02-01T00:01:37;8.73;;;3.60;;
68247;SDS011;55064;49.636;12.164;2023-02-01T00:04:08;8.30;;;3.70;;
68247;SDS011;55064;49.636;12.164;2023-02-01T00:06:33;11.73;;;3.90;;
68247;SDS011;55064;49.636;12.164;2023-02-01T00:08:59;9.17;;;3.70;;
68247;SDS011;55064;49.636;12.164;2023-02-01T00:11:25;9.23;;;3.65;;
68247;SDS011;55064;49.636;12.164;2023-02-01T00:13:53;8.93;;;3.70;;
68247;SDS011;55064;49.636;12.164;2023-02-01T00:16:19;8.00;;;3.22;;
68247;SDS011;55064;49.636;12.164;2023-02-01T00:18:50;9.73;;;3.65;;
68247;SDS011;55064;49.636;12.164;2023-02-01T00:21:20;8.88;;;3.45;;
68247;SDS011;55064;49.636;12.164;2023-02-01T00:23:46;8.13;;;3.67;;
68247;SDS011;55064;49.636;12.164;2023-02-01T00:26:18;9.73;;;3.72;;
68247;SDS011;55064;49.636;12.164;2023-02-01T00:28:45;7.88;;;3.20;;
68247;SDS011;55064;49.636;12.164;2023-02-01T00:31:11;11.10;;;4.17;;
68247;SDS011;55064;49.636;12.164;2023-02-01T00:33:36;10.45;;;4.40;;
68247;SDS011;55064;49.636;12.164;2023-02-01T00:36:04;9.50;;;4.40;;
68247;SDS011;55064;49.636;12.164;2023-02-01T00:38:33;12.05;;;4.60;;
68247;SDS011;55064;49.636;12.164;2023-02-01T00:41:04;11.27;;;4.90;;
68247;SDS011;55064;49.636;12.164;2023-02-01T00:43:31;9.83;;;4.50;;
68247;SDS011;55064;49.636;12.164;2023-02-01T00:45:57;11.00;;;4.43;;
68247;SDS011;55064;49.636;12.164;2023-02-01T00:48:23;10.38;;;4.30;;
68247;SDS011;55064;49.636;12.164;2023-02-01T00:50:49;10.03;;;3.90;;
68247;SDS011;55064;49.636;12.164;2023-02-01T00:53:14;9.07;;;3.75;;
68247;SDS011;55064;49.636;12.164;2023-02-01T00:55:40;9.13;;;4.03;;
68247;SDS011;55064;49.636;12.164;2023-02-01T00:58:05;9.43;;;3.47;;
68247;SDS011;55064;49.636;12.164;2023-02-01T01:00:34;8.23;;;3.53;;
68247;SDS011;55064;49.636;12.164;2023-02-01T01:03:00;8.55;;;3.70;;
68247;SDS011;55064;49.636;12.164;2023-02-01T01:05:27;8.23;;;3.33;;
68247;SDS011;55064;49.636;12.164;2023-02-01T01:07:53;9.50;;;3.88;;
68247;SDS011;55064;49.636;12.164;2023-02-01T01:10:18;8.00;;;3.00;;
68247;SDS011;55064;49.636;12.164;2023-02-01T01:12:45;8.90;;;3.20;;
68247;SDS011;55064;49.636;12.164;2023-02-01T01:15:10;7.73;;;3.07;;
68247;SDS011;55064;49.636;12.164;2023-02-01T01:17:39;8.55;;;3.17;;
68247;SDS011;55064;49.636;12.164;2023-02-01T01:20:05;7.80;;;3.03;;
68247;SDS011;55064;49.636;12.164;2023-02-01T01:22:33;10.13;;;3.00;;
68247;SDS011;55064;49.636;12.164;2023-02-01T01:24:58;7.43;;;2.80;;
68247;SDS011;55064;49.636;12.164;2023-02-01T01:27:24;9.33;;;3.37;;
68247;SDS011;55064;49.636;12.164;2023-02-01T01:29:50;8.82;;;3.42;;
68247;SDS011;55064;49.636;12.164;2023-02-01T01:32:15;7.90;;;3.10;;
68247;SDS011;55064;49.636;12.164;2023-02-01T01:34:40;8.00;;;3.00;;
68247;SDS011;55064;49.636;12.164;2023-02-01T01:37:07;7.95;;;3.10;;
68247;SDS011;55064;49.636;12.164;2023-02-01T01:39:32;6.63;;;2.50;;
68247;SDS011;55064;49.636;12.164;2023-02-01T01:41:58;6.20;;;2.60;;
68247;SDS011;55064;49.636;12.164;2023-02-01T01:47:19;6.70;;;2.55;;
68247;SDS011;55064;49.636;12.164;2023-02-01T01:49:47;6.73;;;2.57;;
68247;SDS011;55064;49.636;12.164;2023-02-01T01:52:13;6.90;;;2.50;;
68247;SDS011;55064;49.636;12.164;2023-02-01T01:54:40;7.07;;;2.77;;
68247;SDS011;55064;49.636;12.164;2023-02-01T01:57:20;7.20;;;2.65;;
68247;SDS011;55064;49.636;12.164;2023-02-01T02:02:40;7.47;;;2.92;;
68247;SDS011;55064;49.636;12.164;2023-02-01T02:05:08;8.20;;;3.50;;
68247;SDS011;55064;49.636;12.164;2023-02-01T02:07:39;8.97;;;3.30;;
68247;SDS011;55064;49.636;12.164;2023-02-01T02:10:10;7.85;;;3.17;;
68247;SDS011;55064;49.636;12.164;2023-02-01T02:12:38;8.43;;;3.33;;
68247;SDS011;55064;49.636;12.164;2023-02-01T02:15:06;11.10;;;4.10;;
68247;SDS011;55064;49.636;12.164;2023-02-01T02:34:24;11.93;;;4.17;;
68247;SDS011;55064;49.636;12.164;2023-02-01T02:37:31;12.85;;;4.88;;
68247;SDS011;55064;49.636;12.164;2023-02-01T02:40:08;13.98;;;5.30;;
68247;SDS011;55064;49.636;12.164;2023-02-01T02:42:39;11.70;;;4.30;;
68247;SDS011;55064;49.636;12.164;2023-02-01T02:54:08;8.25;;;3.47;;
68247;SDS011;55064;49.636;12.164;2023-02-01T02:56:56;9.52;;;3.50;;
68247;SDS011;55064;49.636;12.164;2023-02-01T02:59:43;8.65;;;3.38;;
68247;SDS011;55064;49.636;12.164;2023-02-01T03:02:30;8.27;;;3.10;;
68247;SDS011;55064;49.636;12.164;2023-02-01T03:05:17;8.27;;;3.47;;
68247;SDS011;55064;49.636;12.164;2023-02-01T03:13:13;9.30;;;3.28;;
68247;SDS011;55064;49.636;12.164;2023-02-01T03:18:13;8.70;;;3.20;;
68247;SDS011;55064;49.636;12.164;2023-02-01T03:20:46;10.07;;;3.37;;
68247;SDS011;55064;49.636;12.164;2023-02-01T03:23:16;9.00;;;3.47;;
68247;SDS011;55064;49.636;12.164;2023-02-01T03:25:46;9.05;;;3.75;;
68247;SDS011;55064;49.636;12.164;2023-02-01T03:28:13;9.90;;;3.95;;
68247;SDS011;55064;49.636;12.164;2023-02-01T03:30:46;7.05;;;2.92;;
68247;SDS011;55064;49.636;12.164;2023-02-01T03:33:17;7.37;;;2.93;;
68247;SDS011;55064;49.636;12.164;2023-02-01T03:38:24;9.05;;;3.50;;
68247;SDS011;55064;49.636;12.164;2023-02-01T03:40:52;7.70;;;3.17;;
68247;SDS011;55064;49.636;12.164;2023-02-01T03:43:20;10.68;;;4.20;;
68247;SDS011;55064;49.636;12.164;2023-02-01T03:45:50;11.17;;;4.10;;
68247;SDS011;55064;49.636;12.164;2023-02-01T03:48:22;12.43;;;4.63;;
68247;SDS011;55064;49.636;12.164;2023-02-01T03:50:51;9.85;;;4.13;;
68247;SDS011;55064;49.636;12.164;2023-02-01T03:53:22;8.68;;;3.58;;
68247;SDS011;55064;49.636;12.164;2023-02-01T03:55:49;11.32;;;4.22;;
68247;SDS011;55064;49.636;12.164;2023-02-01T03:58:21;9.90;;;3.77;;
68247;SDS011;55064;49.636;12.164;2023-02-01T04:00:55;9.98;;;4.20;;
68247;SDS011;55064;49.636;12.164;2023-02-01T04:03:22;9.98;;;4.38;;
68247;SDS011;55064;49.636;12.164;2023-02-01T04:05:52;10.70;;;4.10;;
68247;SDS011;55064;49.636;12.164;2023-02-01T04:08:19;9.55;;;3.78;;
68247;SDS011;55064;49.636;12.164;2023-02-01T04:10:46;12.87;;;4.00;;
68247;SDS011;55064;49.636;12.164;2023-02-01T04:13:11;9.82;;;4.00;;
68247;SDS011;55064;49.636;12.164;2023-02-01T04:15:39;10.07;;;3.75;;
68247;SDS011;55064;49.636;12.164;2023-02-01T04:18:08;8.95;;;3.75;;
68247;SDS011;55064;49.636;12.164;2023-02-01T04:20:34;11.47;;;4.00;;
68247;SDS011;55064;49.636;12.164;2023-02-01T04:22:59;10.95;;;4.13;;
68247;SDS011;55064;49.636;12.164;2023-02-01T04:25:28;10.80;;;4.00;;
68247;SDS011;55064;49.636;12.164;2023-02-01T04:27:54;9.07;;;3.67;;
68247;SDS011;55064;49.636;12.164;2023-02-01T04:37:03;9.55;;;4.00;;
68247;SDS011;55064;49.636;12.164;2023-02-01T04:42:50;11.27;;;3.95;;
68247;SDS011;55064;49.636;12.164;2023-02-01T04:48:37;10.20;;;3.45;;
68247;SDS011;55064;49.636;12.164;2023-02-01T04:54:37;9.65;;;3.72;;
68247;SDS011;55064;49.636;12.164;2023-02-01T05:03:01;10.80;;;3.77;;
68247;SDS011;55064;49.636;12.164;2023-02-01T05:05:27;9.75;;;4.15;;
68247;SDS011;55064;49.636;12.164;2023-02-01T05:07:55;10.03;;;3.77;;
68247;SDS011;55064;49.636;12.164;2023-02-01T05:10:25;9.77;;;4.13;;
68247;SDS011;55064;49.636;12.164;2023-02-01T05:16:25;13.65;;;4.85;;
68247;SDS011;55064;49.636;12.164;2023-02-01T05:18:54;9.73;;;3.60;;
68247;SDS011;55064;49.636;12.164;2023-02-01T05:27:30;9.75;;;4.30;;
68247;SDS011;55064;49.636;12.164;2023-02-01T05:30:03;10.90;;;4.07;;
68247;SDS011;55064;49.636;12.164;2023-02-01T05:38:38;9.50;;;3.85;;
68247;SDS011;55064;49.636;12.164;2023-02-01T05:41:03;10.07;;;4.23;;
68247;SDS011;55064;49.636;12.164;2023-02-01T05:43:43;9.00;;;4.10;;
68247;SDS011;55064;49.636;12.164;2023-02-01T05:46:11;10.90;;;4.27;;
68247;SDS011;55064;49.636;12.164;2023-02-01T05:51:59;10.63;;;3.90;;
68247;SDS011;55064;49.636;12.164;2023-02-01T05:57:20;8.55;;;3.40;;
68247;SDS011;55064;49.636;12.164;2023-02-01T05:59:55;11.65;;;3.65;;
68247;SDS011;55064;49.636;12.164;2023-02-01T06:06:08;10.67;;;3.57;;
68247;SDS011;55064;49.636;12.164;2023-02-01T06:08:39;9.20;;;3.88;;
68247;SDS011;55064;49.636;12.164;2023-02-01T06:11:05;9.10;;;3.47;;
68247;SDS011;55064;49.636;12.164;2023-02-01T06:16:53;8.10;;;2.78;;
68247;SDS011;55064;49.636;12.164;2023-02-01T06:22:43;6.20;;;2.20;;
68247;SDS011;55064;49.636;12.164;2023-02-01T06:28:31;7.40;;;2.35;;
68247;SDS011;55064;49.636;12.164;2023-02-01T06:30:57;7.53;;;2.38;;
68247;SDS011;55064;49.636;12.164;2023-02-01T06:33:24;6.78;;;2.40;;
68247;SDS011;55064;49.636;12.164;2023-02-01T06:35:59;10.95;;;2.42;;
68247;SDS011;55064;49.636;12.164;2023-02-01T06:38:26;6.60;;;2.67;;
68247;SDS011;55064;49.636;12.164;2023-02-01T06:40:53;7.65;;;2.90;;
68247;SDS011;55064;49.636;12.164;2023-02-01T06:43:21;8.80;;;3.00;;
68247;SDS011;55064;49.636;12.164;2023-02-01T06:45:47;8.70;;;3.30;;
68247;SDS011;55064;49.636;12.164;2023-02-01T06:48:12;9.88;;;3.20;;
68247;SDS011;55064;49.636;12.164;2023-02-01T06:50:38;8.73;;;3.60;;
68247;SDS011;55064;49.636;12.164;2023-02-01T06:53:03;8.60;;;3.00;;
68247;SDS011;55064;49.636;12.164;2023-02-01T06:55:30;10.47;;;3.37;;
68247;SDS011;55064;49.636;12.164;2023-02-01T06:57:56;10.25;;;3.42;;
68247;SDS011;55064;49.636;12.164;2023-02-01T07:00:22;8.07;;;3.37;;
68247;SDS011;55064;49.636;12.164;2023-02-01T07:02:48;8.27;;;3.28;;
68247;SDS011;55064;49.636;12.164;2023-02-01T07:05:14;9.70;;;3.40;;
68247;SDS011;55064;49.636;12.164;2023-02-01T07:07:40;9.17;;;3.13;;
68247;SDS011;55064;49.636;12.164;2023-02-01T07:10:05;11.15;;;3.30;;
68247;SDS011;55064;49.636;12.164;2023-02-01T07:12:31;11.47;;;3.60;;
68247;SDS011;55064;49.636;12.164;2023-02-01T07:14:56;12.07;;;3.60;;
68247;SDS011;55064;49.636;12.164;2023-02-01T07:17:22;19.07;;;4.87;;
68247;SDS011;55064;49.636;12.164;2023-02-01T07:19:48;21.23;;;6.15;;
68247;SDS011;55064;49.636;12.164;2023-02-01T07:22:15;15.47;;;4.40;;
68247;SDS011;55064;49.636;12.164;2023-02-01T07:24:41;10.93;;;4.30;;
68247;SDS011;55064;49.636;12.164;2023-02-01T07:27:08;9.40;;;2.77;;
68247;SDS011;55064;49.636;12.164;2023-02-01T07:29:33;7.97;;;3.17;;
68247;SDS011;55064;49.636;12.164;2023-02-01T07:31:58;13.70;;;3.20;;
68247;SDS011;55064;49.636;12.164;2023-02-01T07:34:26;11.40;;;3.33;;
68247;SDS011;55064;49.636;12.164;2023-02-01T07:36:53;8.70;;;2.92;;
68247;SDS011;55064;49.636;12.164;2023-02-01T07:39:21;11.50;;;3.20;;
68247;SDS011;55064;49.636;12.164;2023-02-01T07:41:50;8.95;;;3.10;;
68247;SDS011;55064;49.636;12.164;2023-02-01T07:44:17;10.50;;;3.10;;
68247;SDS011;55064;49.636;12.164;2023-02-01T07:46:52;9.88;;;2.67;;
68247;SDS011;55064;49.636;12.164;2023-02-01T07:49:19;11.88;;;2.60;;
68247;SDS011;55064;49.636;12.164;2023-02-01T07:51:44;10.30;;;2.80;;
68247;SDS011;55064;49.636;12.164;2023-02-01T07:54:10;11.80;;;2.80;;
68247;SDS011;55064;49.636;12.164;2023-02-01T07:56:35;11.50;;;2.63;;
68247;SDS011;55064;49.636;12.164;2023-02-01T07:59:01;14.37;;;2.60;;
68247;SDS011;55064;49.636;12.164;2023-02-01T08:01:26;10.20;;;2.53;;
68247;SDS011;55064;49.636;12.164;2023-02-01T08:03:57;10.77;;;2.77;;
68247;SDS011;55064;49.636;12.164;2023-02-01T08:06:29;9.32;;;2.58;;
68247;SDS011;55064;49.636;12.164;2023-02-01T08:08:56;6.82;;;1.70;;
68247;SDS011;55064;49.636;12.164;2023-02-01T08:11:26;8.30;;;2.10;;
68247;SDS011;55064;49.636;12.164;2023-02-01T08:13:54;10.70;;;2.00;;
68247;SDS011;55064;49.636;12.164;2023-02-01T08:16:20;8.40;;;1.77;;
68247;SDS011;55064;49.636;12.164;2023-02-01T08:18:48;7.15;;;1.73;;
68247;SDS011;55064;49.636;12.164;2023-02-01T08:21:22;5.97;;;1.83;;
68247;SDS011;55064;49.636;12.164;2023-02-01T08:23:50;8.15;;;1.88;;
68247;SDS011;55064;49.636;12.164;2023-02-01T08:26:17;7.40;;;1.77;;
68247;SDS011;55064;49.636;12.164;2023-02-01T08:28:46;6.60;;;1.60;;
68247;SDS011;55064;49.636;12.164;2023-02-01T08:31:17;11.20;;;1.90;;
68247;SDS011;55064;49.636;12.164;2023-02-01T08:33:48;6.85;;;1.60;;
68247;SDS011;55064;49.636;12.164;2023-02-01T08:36:15;4.82;;;1.33;;
68247;SDS011;55064;49.636;12.164;2023-02-01T08:38:41;8.77;;;1.65;;
68247;SDS011;55064;49.636;12.164;2023-02-01T08:41:10;8.03;;;1.63;;
68247;SDS011;55064;49.636;12.164;2023-02-01T08:43:37;7.60;;;1.90;;
68247;SDS011;55064;49.636;12.164;2023-02-01T08:46:03;9.00;;;2.00;;
68247;SDS011;55064;49.636;12.164;2023-02-01T08:48:31;7.03;;;1.50;;
68247;SDS011;55064;49.636;12.164;2023-02-01T08:50:56;6.57;;;1.53;;
68247;SDS011;55064;49.636;12.164;2023-02-01T08:53:22;11.75;;;1.67;;
68247;SDS011;55064;49.636;12.164;2023-02-01T08:55:48;6.85;;;1.50;;
68247;SDS011;55064;49.636;12.164;2023-02-01T08:58:17;6.57;;;1.70;;
68247;SDS011;55064;49.636;12.164;2023-02-01T09:00:43;8.20;;;1.50;;
68247;SDS011;55064;49.636;12.164;2023-02-01T09:03:11;8.57;;;1.73;;
68247;SDS011;55064;49.636;12.164;2023-02-01T09:05:36;9.95;;;2.03;;
68247;SDS011;55064;49.636;12.164;2023-02-01T09:08:02;6.88;;;1.70;;
68247;SDS011;55064;49.636;12.164;2023-02-01T09:10:28;7.00;;;1.33;;
68247;SDS011;55064;49.636;12.164;2023-02-01T09:12:53;8.13;;;1.67;;
68247;SDS011;55064;49.636;12.164;2023-02-01T09:15:21;9.48;;;1.88;;
68247;SDS011;55064;49.636;12.164;2023-02-01T09:17:46;9.87;;;1.80;;
68247;SDS011;55064;49.636;12.164;2023-02-01T09:20:13;6.93;;;1.60;;
68247;SDS011;55064;49.636;12.164;2023-02-01T09:22:38;7.47;;;1.80;;
68247;SDS011;55064;49.636;12.164;2023-02-01T09:25:04;9.35;;;1.80;;
68247;SDS011;55064;49.636;12.164;2023-02-01T09:27:30;8.93;;;2.00;;
68247;SDS011;55064;49.636;12.164;2023-02-01T09:29:57;9.50;;;2.10;;
68247;SDS011;55064;49.636;12.164;2023-02-01T09:32:26;9.15;;;1.88;;
68247;SDS011;55064;49.636;12.164;2023-02-01T09:34:51;8.35;;;1.65;;
68247;SDS011;55064;49.636;12.164;2023-02-01T09:37:17;9.48;;;1.73;;
68247;SDS011;55064;49.636;12.164;2023-02-01T09:39:43;5.78;;;1.50;;
68247;SDS011;55064;49.636;12.164;2023-02-01T09:44:56;6.68;;;1.70;;
68247;SDS011;55064;49.636;12.164;2023-02-01T09:47:24;9.52;;;1.90;;
68247;SDS011;55064;49.636;12.164;2023-02-01T09:52:36;8.13;;;1.70;;
68247;SDS011;55064;49.636;12.164;2023-02-01T09:55:11;6.90;;;1.63;;
68247;SDS011;55064;49.636;12.164;2023-02-01T09:57:45;6.90;;;1.50;;
68247;SDS011;55064;49.636;12.164;2023-02-01T10:00:24;6.68;;;1.75;;
68247;SDS011;55064;49.636;12.164;2023-02-01T10:02:53;7.72;;;1.52;;
68247;SDS011;55064;49.636;12.164;2023-02-01T10:08:24;7.00;;;1.63;;
68247;SDS011;55064;49.636;12.164;2023-02-01T10:11:03;9.15;;;1.95;;
68247;SDS011;55064;49.636;12.164;2023-02-01T10:16:32;9.02;;;1.60;;
68247;SDS011;55064;49.636;12.164;2023-02-01T10:21:45;9.30;;;2.03;;
68247;SDS011;55064;49.636;12.164;2023-02-01T10:29:54;8.82;;;1.67;;
68247;SDS011;55064;49.636;12.164;2023-02-01T10:32:33;6.63;;;1.25;;
68247;SDS011;55064;49.636;12.164;2023-02-01T10:37:42;9.93;;;1.60;;
68247;SDS011;55064;49.636;12.164;2023-02-01T10:40:12;4.97;;;1.27;;
68247;SDS011;55064;49.636;12.164;2023-02-01T10:42:41;8.40;;;1.50;;
68247;SDS011;55064;49.636;12.164;2023-02-01T10:45:13;6.13;;;1.45;;
68247;SDS011;55064;49.636;12.164;2023-02-01T10:47:43;5.07;;;0.90;;
68247;SDS011;55064;49.636;12.164;2023-02-01T10:50:16;6.13;;;1.50;;
68247;SDS011;55064;49.636;12.164;2023-02-01T10:52:57;6.60;;;1.13;;
68247;SDS011;55064;49.636;12.164;2023-02-01T10:58:21;8.23;;;2.05;;
68247;SDS011;55064;49.636;12.164;2023-02-01T11:00:58;5.67;;;1.20;;
68247;SDS011;55064;49.636;12.164;2023-02-01T11:08:55;6.35;;;1.65;;
68247;SDS011;55064;49.636;12.164;2023-02-01T11:11:23;6.85;;;1.50;;
68247;SDS011;55064;49.636;12.164;2023-02-01T11:14:10;6.47;;;1.40;;
68247;SDS011;55064;49.636;12.164;2023-02-01T11:16:41;5.93;;;1.60;;
68247;SDS011;55064;49.636;12.164;2023-02-01T11:19:14;7.22;;;1.55;;
68247;SDS011;55064;49.636;12.164;2023-02-01T11:21:41;6.07;;;1.67;;
68247;SDS011;55064;49.636;12.164;2023-02-01T11:24:11;8.10;;;1.67;;
68247;SDS011;55064;49.636;12.164;2023-02-01T11:26:48;6.93;;;1.80;;
68247;SDS011;55064;49.636;12.164;2023-02-01T11:29:14;6.53;;;1.45;;
68247;SDS011;55064;49.636;12.164;2023-02-01T11:31:47;8.65;;;1.55;;
68247;SDS011;55064;49.636;12.164;2023-02-01T11:34:24;6.93;;;1.50;;
68247;SDS011;55064;49.636;12.164;2023-02-01T11:36:53;6.20;;;1.30;;
68247;SDS011;55064;49.636;12.164;2023-02-01T11:49:51;9.68;;;1.58;;
68247;SDS011;55064;49.636;12.164;2023-02-01T11:58:14;8.45;;;1.60;;
68247;SDS011;55064;49.636;12.164;2023-02-01T12:25:56;9.15;;;1.65;;
68247;SDS011;55064;49.636;12.164;2023-02-01T12:42:07;7.38;;;1.63;;
68247;SDS011;55064;49.636;12.164;2023-02-01T12:44:42;7.60;;;1.85;;
68247;SDS011;55064;49.636;12.164;2023-02-01T12:52:32;8.52;;;2.38;;
68247;SDS011;55064;49.636;12.164;2023-02-01T12:55:16;8.38;;;1.98;;
68247;SDS011;55064;49.636;12.164;2023-02-01T12:57:45;7.20;;;2.08;;
68247;SDS011;55064;49.636;12.164;2023-02-01T13:05:52;7.57;;;1.92;;
68247;SDS011;55064;49.636;12.164;2023-02-01T13:08:45;6.28;;;2.05;;
68247;SDS011;55064;49.636;12.164;2023-02-01T13:16:38;9.13;;;1.90;;
68247;SDS011;55064;49.636;12.164;2023-02-01T13:19:23;9.23;;;2.00;;
68247;SDS011;55064;49.636;12.164;2023-02-01T13:22:00;9.55;;;2.10;;
68247;SDS011;55064;49.636;12.164;2023-02-01T13:27:03;7.33;;;1.80;;
68247;SDS011;55064;49.636;12.164;2023-02-01T13:29:32;9.15;;;1.67;;
68247;SDS011;55064;49.636;12.164;2023-02-01T13:32:11;9.32;;;2.25;;
68247;SDS011;55064;49.636;12.164;2023-02-01T13:37:19;7.05;;;1.90;;
68247;SDS011;55064;49.636;12.164;2023-02-01T13:42:54;6.65;;;1.60;;
68247;SDS011;55064;49.636;12.164;2023-02-01T13:45:29;6.97;;;1.65;;
68247;SDS011;55064;49.636;12.164;2023-02-01T13:47:58;6.95;;;1.92;;
68247;SDS011;55064;49.636;12.164;2023-02-01T13:50:37;6.70;;;1.65;;
68247;SDS011;55064;49.636;12.164;2023-02-01T13:55:40;9.85;;;2.70;;
68247;SDS011;55064;49.636;12.164;2023-02-01T13:58:12;7.90;;;2.05;;
68247;SDS011;55064;49.636;12.164;2023-02-01T14:00:40;8.07;;;1.85;;
68247;SDS011;55064;49.636;12.164;2023-02-01T14:03:19;7.70;;;2.42;;
68247;SDS011;55064;49.636;12.164;2023-02-01T14:26:21;8.80;;;1.90;;
68247;SDS011;55064;49.636;12.164;2023-02-01T14:28:54;9.55;;;2.28;;
68247;SDS011;55064;49.636;12.164;2023-02-01T14:31:33;10.30;;;2.97;;
68247;SDS011;55064;49.636;12.164;2023-02-01T14:34:04;7.57;;;1.83;;
68247;SDS011;55064;49.636;12.164;2023-02-01T14:39:24;10.17;;;1.50;;
68247;SDS011;55064;49.636;12.164;2023-02-01T14:41:55;6.15;;;1.45;;
68247;SDS011;55064;49.636;12.164;2023-02-01T14:44:33;8.20;;;1.73;;
68247;SDS011;55064;49.636;12.164;2023-02-01T14:47:04;9.52;;;1.95;;
68247;SDS011;55064;49.636;12.164;2023-02-01T14:49:42;8.45;;;1.60;;
68247;SDS011;55064;49.636;12.164;2023-02-01T14:52:17;6.90;;;2.07;;
68247;SDS011;55064;49.636;12.164;2023-02-01T14:54:52;7.47;;;1.75;;
68247;SDS011;55064;49.636;12.164;2023-02-01T14:57:22;10.23;;;1.92;;
68247;SDS011;55064;49.636;12.164;2023-02-01T14:59:52;5.90;;;1.67;;
68247;SDS011;55064;49.636;12.164;2023-02-01T15:02:25;11.75;;;2.83;;
68247;SDS011;55064;49.636;12.164;2023-02-01T15:04:55;8.57;;;2.27;;
68247;SDS011;55064;49.636;12.164;2023-02-01T15:07:24;9.23;;;2.80;;
68247;SDS011;55064;49.636;12.164;2023-02-01T15:09:52;9.45;;;3.50;;
68247;SDS011;55064;49.636;12.164;2023-02-01T15:12:25;10.13;;;2.00;;
68247;SDS011;55064;49.636;12.164;2023-02-01T15:17:36;8.50;;;2.60;;
68247;SDS011;55064;49.636;12.164;2023-02-01T15:22:28;8.00;;;1.67;;
68247;SDS011;55064;49.636;12.164;2023-02-01T15:24:59;9.30;;;2.10;;
68247;SDS011;55064;49.636;12.164;2023-02-01T15:27:28;8.50;;;1.85;;
68247;SDS011;55064;49.636;12.164;2023-02-01T15:29:54;11.75;;;2.42;;
68247;SDS011;55064;49.636;12.164;2023-02-01T15:32:34;9.13;;;2.10;;
68247;SDS011;55064;49.636;12.164;2023-02-01T15:35:04;9.73;;;2.33;;
68247;SDS011;55064;49.636;12.164;2023-02-01T15:37:30;7.32;;;1.70;;
68247;SDS011;55064;49.636;12.164;2023-02-01T15:45:18;9.40;;;2.03;;
68247;SDS011;55064;49.636;12.164;2023-02-01T15:47:48;8.63;;;1.80;;
68247;SDS011;55064;49.636;12.164;2023-02-01T15:50:18;7.00;;;1.70;;
68247;SDS011;55064;49.636;12.164;2023-02-01T15:52:47;9.60;;;1.90;;
68247;SDS011;55064;49.636;12.164;2023-02-01T15:55:25;8.05;;;2.20;;
68247;SDS011;55064;49.636;12.164;2023-02-01T15:58:04;8.70;;;2.10;;
68247;SDS011;55064;49.636;12.164;2023-02-01T16:00:31;11.77;;;1.70;;
68247;SDS011;55064;49.636;12.164;2023-02-01T16:04:00;6.15;;;1.77;;
68247;SDS011;55064;49.636;12.164;2023-02-01T16:06:07;8.18;;;1.30;;
68247;SDS011;55064;49.636;12.164;2023-02-01T16:08:37;11.20;;;2.17;;
68247;SDS011;55064;49.636;12.164;2023-02-01T16:11:40;10.35;;;3.65;;
68247;SDS011;55064;49.636;12.164;2023-02-01T16:14:25;13.33;;;3.97;;
68247;SDS011;55064;49.636;12.164;2023-02-01T16:16:52;10.77;;;3.17;;
68247;SDS011;55064;49.636;12.164;2023-02-01T16:19:22;11.60;;;3.45;;
68247;SDS011;55064;49.636;12.164;2023-02-01T16:21:54;12.23;;;2.63;;
68247;SDS011;55064;49.636;12.164;2023-02-01T16:24:20;9.57;;;2.50;;
68247;SDS011;55064;49.636;12.164;2023-02-01T16:26:56;10.50;;;3.30;;
68247;SDS011;55064;49.636;12.164;2023-02-01T16:29:34;12.23;;;2.60;;
68247;SDS011;55064;49.636;12.164;2023-02-01T16:32:00;9.88;;;3.15;;
68247;SDS011;55064;49.636;12.164;2023-02-01T16:49:59;11.48;;;3.10;;
68247;SDS011;55064;49.636;12.164;2023-02-01T16:55:48;9.15;;;1.92;;
68247;SDS011;55064;49.636;12.164;2023-02-01T17:01:36;10.77;;;2.07;;
68247;SDS011;55064;49.636;12.164;2023-02-01T17:04:13;9.55;;;2.20;;
68247;SDS011;55064;49.636;12.164;2023-02-01T17:06:42;9.25;;;2.10;;
68247;SDS011;55064;49.636;12.164;2023-02-01T17:09:12;8.05;;;2.08;;
68247;SDS011;55064;49.636;12.164;2023-02-01T17:15:17;9.18;;;2.10;;
68247;SDS011;55064;49.636;12.164;2023-02-01T17:17:50;10.10;;;2.00;;
68247;SDS011;55064;49.636;12.164;2023-02-01T17:23:41;7.68;;;2.20;;
68247;SDS011;55064;49.636;12.164;2023-02-01T17:26:14;12.47;;;3.27;;
68247;SDS011;55064;49.636;12.164;2023-02-01T17:32:00;15.65;;;3.70;;
68247;SDS011;55064;49.636;12.164;2023-02-01T17:34:33;7.45;;;2.00;;
68247;SDS011;55064;49.636;12.164;2023-02-01T17:36:58;10.18;;;2.13;;
68247;SDS011;55064;49.636;12.164;2023-02-01T17:39:27;10.27;;;2.80;;
68247;SDS011;55064;49.636;12.164;2023-02-01T17:42:27;6.35;;;1.60;;
68247;SDS011;55064;49.636;12.164;2023-02-01T17:51:44;10.05;;;2.35;;
68247;SDS011;55064;49.636;12.164;2023-02-01T17:54:25;9.37;;;1.97;;
68247;SDS011;55064;49.636;12.164;2023-02-01T17:56:53;8.55;;;1.88;;
68247;SDS011;55064;49.636;12.164;2023-02-01T18:02:35;7.78;;;1.70;;
68247;SDS011;55064;49.636;12.164;2023-02-01T18:11:10;9.25;;;2.83;;
68247;SDS011;55064;49.636;12.164;2023-02-01T18:16:42;9.07;;;1.63;;
68247;SDS011;55064;49.636;12.164;2023-02-01T18:19:12;7.70;;;2.10;;
68247;SDS011;55064;49.636;12.164;2023-02-01T18:27:29;12.98;;;3.00;;
68247;SDS011;55064;49.636;12.164;2023-02-01T18:35:45;6.90;;;1.53;;
68247;SDS011;55064;49.636;12.164;2023-02-01T18:38:22;10.63;;;1.60;;
68247;SDS011;55064;49.636;12.164;2023-02-01T18:40:48;9.45;;;1.63;;
68247;SDS011;55064;49.636;12.164;2023-02-01T18:43:34;10.07;;;1.70;;
68247;SDS011;55064;49.636;12.164;2023-02-01T18:46:02;7.40;;;1.95;;
68247;SDS011;55064;49.636;12.164;2023-02-01T18:48:34;14.97;;;2.10;;
68247;SDS011;55064;49.636;12.164;2023-02-01T18:50:59;11.55;;;1.90;;
68247;SDS011;55064;49.636;12.164;2023-02-01T18:53:31;8.90;;;2.00;;
68247;SDS011;55064;49.636;12.164;2023-02-01T18:56:03;11.53;;;1.97;;
68247;SDS011;55064;49.636;12.164;2023-02-01T18:58:36;9.07;;;2.10;;
68247;SDS011;55064;49.636;12.164;2023-02-01T19:01:17;10.20;;;2.10;;
68247;SDS011;55064;49.636;12.164;2023-02-01T19:03:47;7.68;;;1.80;;
68247;SDS011;55064;49.636;12.164;2023-02-01T19:06:19;10.25;;;2.30;;
68247;SDS011;55064;49.636;12.164;2023-02-01T19:08:45;8.70;;;2.20;;
68247;SDS011;55064;49.636;12.164;2023-02-01T19:11:17;9.02;;;2.20;;
68247;SDS011;55064;49.636;12.164;2023-02-01T19:13:42;7.70;;;1.70;;
68247;SDS011;55064;49.636;12.164;2023-02-01T19:16:11;9.43;;;2.27;;
68247;SDS011;55064;49.636;12.164;2023-02-01T19:18:38;8.98;;;2.10;;
68247;SDS011;55064;49.636;12.164;2023-02-01T19:21:16;8.48;;;2.22;;
68247;SDS011;55064;49.636;12.164;2023-02-01T19:23:42;11.27;;;2.10;;
68247;SDS011;55064;49.636;12.164;2023-02-01T19:26:12;7.90;;;2.10;;
68247;SDS011;55064;49.636;12.164;2023-02-01T19:28:40;7.78;;;2.35;;
68247;SDS011;55064;49.636;12.164;2023-02-01T19:31:20;9.95;;;2.38;;
68247;SDS011;55064;49.636;12.164;2023-02-01T19:33:45;12.03;;;2.73;;
68247;SDS011;55064;49.636;12.164;2023-02-01T19:39:11;7.60;;;2.17;;
68247;SDS011;55064;49.636;12.164;2023-02-01T19:53:33;9.90;;;2.00;;
68247;SDS011;55064;49.636;12.164;2023-02-01T19:56:00;9.73;;;2.43;;
68247;SDS011;55064;49.636;12.164;2023-02-01T19:58:26;11.52;;;2.00;;
68247;SDS011;55064;49.636;12.164;2023-02-01T20:09:59;12.82;;;3.05;;
68247;SDS011;55064;49.636;12.164;2023-02-01T20:12:26;15.38;;;4.70;;
68247;SDS011;55064;49.636;12.164;2023-02-01T20:14:54;14.70;;;4.43;;
68247;SDS011;55064;49.636;12.164;2023-02-01T20:20:12;14.65;;;3.95;;
68247;SDS011;55064;49.636;12.164;2023-02-01T20:22:39;34.72;;;10.18;;
68247;SDS011;55064;49.636;12.164;2023-02-01T20:25:11;43.33;;;14.30;;